createdAt,value
2018-04-29T00:00:09.679Z,1003.8
2018-04-29T00:01:12.123Z,1003.7
2018-04-29T00:02:14.553Z,1003.8
2018-04-29T00:03:16.997Z,1003.8
2018-04-29T00:04:19.437Z,1003.8
2018-04-29T00:05:22.169Z,1003.8
2018-04-29T00:06:24.894Z,1003.8
2018-04-29T00:07:27.324Z,1003.8
2018-04-29T00:08:29.765Z,1003.8
2018-04-29T00:09:32.872Z,1003.8
2018-04-29T00:10:35.905Z,1003.8
2018-04-29T00:11:38.342Z,1003.9
2018-04-29T00:12:41.059Z,1003.8
2018-04-29T00:13:43.501Z,1003.8
2018-04-29T00:14:46.240Z,1003.8
2018-04-29T00:15:48.962Z,1003.8
2018-04-29T00:16:51.392Z,1003.8
2018-04-29T00:17:53.833Z,1003.8
2018-04-29T00:18:56.572Z,1003.8
2018-04-29T00:19:59.305Z,1003.8
2018-04-29T00:21:01.741Z,1003.8
2018-04-29T00:22:04.183Z,1003.8
2018-04-29T00:23:06.622Z,1003.8
2018-04-29T00:24:09.073Z,1003.8
2018-04-29T00:25:11.508Z,1003.8
2018-04-29T00:26:13.948Z,1003.8
2018-04-29T00:27:16.666Z,1003.8
2018-04-29T00:28:19.100Z,1003.8
2018-04-29T00:29:21.548Z,1003.8
2018-04-29T00:30:23.981Z,1003.8
2018-04-29T00:31:26.775Z,1003.8
2018-04-29T00:32:29.210Z,1003.8
2018-04-29T00:33:31.957Z,1003.8
2018-04-29T00:34:34.781Z,1003.8
2018-04-29T00:35:37.221Z,1003.8
2018-04-29T00:36:39.954Z,1003.8
2018-04-29T00:37:42.788Z,1003.8
2018-04-29T00:38:45.217Z,1003.8
2018-04-29T00:39:48.275Z,1003.7
2018-04-29T00:40:50.711Z,1003.8
2018-04-29T00:41:53.440Z,1003.8
2018-04-29T00:42:55.879Z,1003.9
2018-04-29T00:43:58.311Z,1003.8
2018-04-29T00:45:00.756Z,1003.8
2018-04-29T00:46:03.199Z,1003.8
2018-04-29T00:47:05.642Z,1003.9
2018-04-29T00:48:08.085Z,1003.9
2018-04-29T00:49:10.525Z,1003.9
2018-04-29T00:50:13.243Z,1003.9
2018-04-29T00:51:15.679Z,1003.9
2018-04-29T00:52:18.517Z,1003.9
2018-04-29T00:53:21.007Z,1003.8
2018-04-29T00:54:23.396Z,1003.9
2018-04-29T00:55:25.830Z,1003.9
2018-04-29T00:56:28.313Z,1003.9
2018-04-29T00:57:30.704Z,1003.9
2018-04-29T00:58:33.148Z,1003.9
2018-04-29T00:59:35.578Z,1003.9
2018-04-29T01:00:38.023Z,1003.8
2018-04-29T01:01:40.471Z,1003.8
2018-04-29T01:02:43.300Z,1003.8
2018-04-29T01:03:46.022Z,1003.8
2018-04-29T01:04:49.143Z,1003.8
2018-04-29T01:05:51.586Z,1003.8
2018-04-29T01:06:54.321Z,1003.8
2018-04-29T01:07:57.040Z,1003.8
2018-04-29T01:08:59.484Z,1003.8
2018-04-29T01:10:01.913Z,1003.8
2018-04-29T01:11:04.351Z,1003.8
2018-04-29T01:12:06.785Z,1003.8
2018-04-29T01:13:09.234Z,1003.8
2018-04-29T01:14:11.673Z,1003.8
2018-04-29T01:15:14.117Z,1003.8
2018-04-29T01:16:16.556Z,1003.8
2018-04-29T01:17:19.390Z,1003.9
2018-04-29T01:18:22.114Z,1003.9
2018-04-29T01:19:24.857Z,1003.9
2018-04-29T01:20:27.298Z,1003.9
2018-04-29T01:21:30.022Z,1003.9
2018-04-29T01:22:32.455Z,1003.9
2018-04-29T01:23:34.914Z,1003.9
2018-04-29T01:24:37.340Z,1003.8
2018-04-29T01:25:39.784Z,1003.9
2018-04-29T01:26:42.226Z,1003.9
2018-04-29T01:27:44.667Z,1003.9
2018-04-29T01:28:47.393Z,1003.9
2018-04-29T01:29:50.512Z,1003.9
2018-04-29T01:30:52.953Z,1003.8
2018-04-29T01:31:55.670Z,1003.9
2018-04-29T01:32:58.114Z,1003.9
2018-04-29T01:34:00.551Z,1003.9
2018-04-29T01:35:02.991Z,1003.8
2018-04-29T01:36:05.430Z,1003.8
2018-04-29T01:37:07.860Z,1003.8
2018-04-29T01:38:10.300Z,1003.8
2018-04-29T01:39:12.748Z,1003.8
2018-04-29T01:40:15.178Z,1003.8
2018-04-29T01:41:17.623Z,1003.8
2018-04-29T01:42:20.057Z,1003.8
2018-04-29T01:43:22.497Z,1003.8
2018-04-29T01:44:25.238Z,1003.8
2018-04-29T01:45:27.677Z,1003.8
2018-04-29T01:46:30.116Z,1003.8
2018-04-29T01:47:32.565Z,1003.8
2018-04-29T01:48:35.008Z,1003.8
2018-04-29T01:49:37.723Z,1003.8
2018-04-29T01:50:40.165Z,1003.8
2018-04-29T01:51:42.616Z,1003.8
2018-04-29T01:52:45.447Z,1003.8
2018-04-29T01:53:47.881Z,1003.8
2018-04-29T01:54:50.709Z,1003.8
2018-04-29T01:55:53.429Z,1003.8
2018-04-29T01:56:55.880Z,1003.8
2018-04-29T01:57:58.329Z,1003.8
2018-04-29T01:59:00.760Z,1003.8
2018-04-29T02:00:03.210Z,1003.8
2018-04-29T02:01:05.947Z,1003.8
2018-04-29T02:02:08.378Z,1003.8
2018-04-29T02:03:10.814Z,1003.8
2018-04-29T02:04:13.554Z,1003.8
2018-04-29T02:05:15.994Z,1003.8
2018-04-29T02:06:18.716Z,1003.8
2018-04-29T02:07:21.155Z,1003.9
2018-04-29T02:08:23.997Z,1003.9
2018-04-29T02:09:26.435Z,1003.9
2018-04-29T02:10:28.898Z,1003.9
2018-04-29T02:11:31.314Z,1003.9
2018-04-29T02:12:34.039Z,1003.8
2018-04-29T02:13:36.546Z,1003.9
2018-04-29T02:14:38.933Z,1003.9
2018-04-29T02:15:41.667Z,1003.9
2018-04-29T02:16:44.109Z,1003.9
2018-04-29T02:17:46.547Z,1003.9
2018-04-29T02:18:49.954Z,1003.8
2018-04-29T02:19:52.389Z,1003.8
2018-04-29T02:20:54.822Z,1003.8
2018-04-29T02:21:57.542Z,1003.8
2018-04-29T02:23:00.261Z,1003.8
2018-04-29T02:24:03.015Z,1003.8
2018-04-29T02:25:05.455Z,1003.8
2018-04-29T02:26:07.897Z,1003.8
2018-04-29T02:27:10.341Z,1003.8
2018-04-29T02:28:12.779Z,1003.8
2018-04-29T02:29:15.222Z,1003.9
2018-04-29T02:30:17.663Z,1003.8
2018-04-29T02:31:20.141Z,1003.8
2018-04-29T02:32:23.386Z,1003.8
2018-04-29T02:33:25.831Z,1003.8
2018-04-29T02:34:28.580Z,1003.9
2018-04-29T02:35:32.002Z,1003.9
2018-04-29T02:36:34.446Z,1003.9
2018-04-29T02:37:37.280Z,1003.9
2018-04-29T02:38:40.114Z,1003.9
2018-04-29T02:39:42.823Z,1003.9
2018-04-29T02:40:45.554Z,1003.9
2018-04-29T02:41:48.291Z,1003.9
2018-04-29T02:42:50.735Z,1003.9
2018-04-29T02:43:53.456Z,1003.9
2018-04-29T02:44:55.903Z,1003.9
2018-04-29T02:45:58.333Z,1003.9
2018-04-29T02:47:00.789Z,1004
2018-04-29T02:48:03.517Z,1004
2018-04-29T02:49:05.966Z,1004
2018-04-29T02:50:08.697Z,1004
2018-04-29T02:51:11.133Z,1004.1
2018-04-29T02:52:13.976Z,1004
2018-04-29T02:53:16.710Z,1004
2018-04-29T02:54:19.436Z,1004
2018-04-29T02:55:22.264Z,1004
2018-04-29T02:56:25.099Z,1004.1
2018-04-29T02:57:27.919Z,1004
2018-04-29T02:58:30.650Z,1004
2018-04-29T02:59:33.089Z,1004
2018-04-29T03:00:35.825Z,1004
2018-04-29T03:01:38.945Z,1004
2018-04-29T03:02:41.665Z,1004
2018-04-29T03:03:44.411Z,1004
2018-04-29T03:04:47.529Z,1004
2018-04-29T03:05:50.247Z,1003.9
2018-04-29T03:06:52.694Z,1003.9
2018-04-29T03:07:55.713Z,1003.9
2018-04-29T03:08:58.433Z,1003.9
2018-04-29T03:10:00.876Z,1003.9
2018-04-29T03:11:03.591Z,1003.9
2018-04-29T03:12:06.901Z,1003.8
2018-04-29T03:13:09.351Z,1003.8
2018-04-29T03:14:12.087Z,1003.8
2018-04-29T03:15:15.204Z,1003.8
2018-04-29T03:16:17.647Z,1003.8
2018-04-29T03:17:20.654Z,1003.8
2018-04-29T03:18:23.392Z,1003.8
2018-04-29T03:19:25.829Z,1003.8
2018-04-29T03:20:28.255Z,1003.8
2018-04-29T03:21:30.704Z,1003.8
2018-04-29T03:22:33.141Z,1003.8
2018-04-29T03:23:35.583Z,1003.8
2018-04-29T03:24:38.024Z,1003.8
2018-04-29T03:25:40.458Z,1003.8
2018-04-29T03:26:42.895Z,1003.7
2018-04-29T03:27:45.346Z,1003.8
2018-04-29T03:28:47.778Z,1003.8
2018-04-29T03:29:50.208Z,1003.8
2018-04-29T03:30:52.654Z,1003.9
2018-04-29T03:31:55.096Z,1003.8
2018-04-29T03:32:57.536Z,1003.8
2018-04-29T03:33:59.988Z,1003.8
2018-04-29T03:35:02.733Z,1003.8
2018-04-29T03:36:05.176Z,1003.8
2018-04-29T03:37:07.606Z,1003.8
2018-04-29T03:38:10.047Z,1003.8
2018-04-29T03:39:12.476Z,1003.8
2018-04-29T03:40:14.921Z,1003.8
2018-04-29T03:41:17.353Z,1003.8
2018-04-29T03:42:19.798Z,1003.8
2018-04-29T03:43:22.232Z,1003.7
2018-04-29T03:44:24.682Z,1003.8
2018-04-29T03:45:27.495Z,1003.8
2018-04-29T03:46:30.220Z,1003.8
2018-04-29T03:47:32.657Z,1003.8
2018-04-29T03:48:35.393Z,1003.8
2018-04-29T03:49:37.834Z,1003.7
2018-04-29T03:50:40.559Z,1003.7
2018-04-29T03:51:42.980Z,1003.8
2018-04-29T03:52:45.725Z,1003.8
2018-04-29T03:53:48.159Z,1003.8
2018-04-29T03:54:50.884Z,1003.7
2018-04-29T03:55:53.387Z,1003.7
2018-04-29T03:56:55.756Z,1003.7
2018-04-29T03:57:58.191Z,1003.7
2018-04-29T03:59:00.639Z,1003.8
2018-04-29T04:00:03.668Z,1003.8
2018-04-29T04:01:06.399Z,1003.8
2018-04-29T04:02:08.840Z,1003.8
2018-04-29T04:03:11.260Z,1003.8
2018-04-29T04:04:13.703Z,1003.8
2018-04-29T04:05:16.143Z,1003.8
2018-04-29T04:06:18.968Z,1003.8
2018-04-29T04:07:21.402Z,1003.9
2018-04-29T04:08:24.123Z,1003.9
2018-04-29T04:09:26.847Z,1003.9
2018-04-29T04:10:29.288Z,1003.9
2018-04-29T04:11:31.731Z,1003.9
2018-04-29T04:12:34.732Z,1004
2018-04-29T04:13:37.171Z,1003.9
2018-04-29T04:14:39.609Z,1003.9
2018-04-29T04:15:42.640Z,1003.9
2018-04-29T04:16:45.079Z,1003.9
2018-04-29T04:17:47.508Z,1003.9
2018-04-29T04:18:49.958Z,1004
2018-04-29T04:19:52.397Z,1004
2018-04-29T04:20:54.837Z,1004
2018-04-29T04:21:57.280Z,1004
2018-04-29T04:22:59.714Z,1004.1
2018-04-29T04:24:02.149Z,1004.1
2018-04-29T04:25:04.893Z,1004.1
2018-04-29T04:26:07.714Z,1004.1
2018-04-29T04:27:10.141Z,1004
2018-04-29T04:28:12.588Z,1004.1
2018-04-29T04:29:15.028Z,1004.1
2018-04-29T04:30:17.464Z,1004.1
2018-04-29T04:31:19.912Z,1004.1
2018-04-29T04:32:22.355Z,1004.2
2018-04-29T04:33:24.788Z,1004.2
2018-04-29T04:34:27.583Z,1004.2
2018-04-29T04:35:30.011Z,1004.2
2018-04-29T04:36:32.460Z,1004.2
2018-04-29T04:37:35.180Z,1004.2
2018-04-29T04:38:37.625Z,1004.2
2018-04-29T04:39:40.057Z,1004.2
2018-04-29T04:40:42.791Z,1004.2
2018-04-29T04:41:45.234Z,1004.2
2018-04-29T04:42:48.264Z,1004.2
2018-04-29T04:43:50.698Z,1004.2
2018-04-29T04:44:53.144Z,1004.2
2018-04-29T04:45:55.582Z,1004.2
2018-04-29T04:46:58.030Z,1004.2
2018-04-29T04:48:00.472Z,1004.2
2018-04-29T04:49:03.501Z,1004.1
2018-04-29T04:50:06.215Z,1004.1
2018-04-29T04:51:09.331Z,1004.1
2018-04-29T04:52:11.758Z,1004.1
2018-04-29T04:53:14.198Z,1004.1
2018-04-29T04:54:17.014Z,1004.2
2018-04-29T04:55:19.454Z,1004.2
2018-04-29T04:56:22.184Z,1004.2
2018-04-29T04:57:24.631Z,1004.2
2018-04-29T04:58:27.052Z,1004.2
2018-04-29T04:59:29.773Z,1004.2
2018-04-29T05:00:32.225Z,1004.2
2018-04-29T05:01:34.655Z,1004.2
2018-04-29T05:02:37.096Z,1004.2
2018-04-29T05:03:39.530Z,1004.2
2018-04-29T05:04:41.961Z,1004.3
2018-04-29T05:05:44.986Z,1004.3
2018-04-29T05:06:47.431Z,1004.3
2018-04-29T05:07:49.866Z,1004.2
2018-04-29T05:08:52.316Z,1004.2
2018-04-29T05:09:55.040Z,1004.2
2018-04-29T05:10:57.479Z,1004.2
2018-04-29T05:11:59.912Z,1004.2
2018-04-29T05:13:02.358Z,1004.2
2018-04-29T05:14:04.792Z,1004.2
2018-04-29T05:15:07.241Z,1004.2
2018-04-29T05:16:09.684Z,1004.2
2018-04-29T05:17:12.817Z,1004.2
2018-04-29T05:18:15.239Z,1004.1
2018-04-29T05:19:17.679Z,1004.2
2018-04-29T05:20:20.128Z,1004.2
2018-04-29T05:21:22.865Z,1004.2
2018-04-29T05:22:25.298Z,1004.2
2018-04-29T05:23:28.311Z,1004.2
2018-04-29T05:24:30.753Z,1004.3
2018-04-29T05:25:33.197Z,1004.2
2018-04-29T05:26:35.635Z,1004.2
2018-04-29T05:27:38.084Z,1004.2
2018-04-29T05:28:40.515Z,1004.2
2018-04-29T05:29:42.959Z,1004.2
2018-04-29T05:30:45.398Z,1004.3
2018-04-29T05:31:48.120Z,1004.3
2018-04-29T05:32:50.842Z,1004.2
2018-04-29T05:33:53.559Z,1004.3
2018-04-29T05:34:56.007Z,1004.3
2018-04-29T05:35:58.456Z,1004.2
2018-04-29T05:37:01.181Z,1004.3
2018-04-29T05:38:03.919Z,1004.2
2018-04-29T05:39:06.352Z,1004.3
2018-04-29T05:40:09.098Z,1004.3
2018-04-29T05:41:11.540Z,1004.3
2018-04-29T05:42:13.982Z,1004.3
2018-04-29T05:43:16.410Z,1004.3
2018-04-29T05:44:19.446Z,1004.3
2018-04-29T05:45:21.881Z,1004.4
2018-04-29T05:46:24.618Z,1004.4
2018-04-29T05:47:27.058Z,1004.4
2018-04-29T05:48:29.487Z,1004.5
2018-04-29T05:49:32.508Z,1004.5
2018-04-29T05:50:34.955Z,1004.5
2018-04-29T05:51:37.396Z,1004.5
2018-04-29T05:52:39.832Z,1004.5
2018-04-29T05:53:42.275Z,1004.6
2018-04-29T05:54:44.719Z,1004.5
2018-04-29T05:55:47.164Z,1004.6
2018-04-29T05:56:49.610Z,1004.6
2018-04-29T05:57:52.035Z,1004.6
2018-04-29T05:58:54.490Z,1004.6
2018-04-29T05:59:57.223Z,1004.6
2018-04-29T06:01:00.258Z,1004.6
2018-04-29T06:02:02.699Z,1004.5
2018-04-29T06:03:05.141Z,1004.5
2018-04-29T06:04:08.256Z,1004.5
2018-04-29T06:05:10.695Z,1004.5
2018-04-29T06:06:13.515Z,1004.5
2018-04-29T06:07:15.966Z,1004.4
2018-04-29T06:08:18.404Z,1004.4
2018-04-29T06:09:21.157Z,1004.4
2018-04-29T06:10:23.603Z,1004.3
2018-04-29T06:11:26.036Z,1004.3
2018-04-29T06:12:28.484Z,1004.3
2018-04-29T06:13:31.498Z,1004.4
2018-04-29T06:14:33.926Z,1004.4
2018-04-29T06:15:36.362Z,1004.4
2018-04-29T06:16:39.103Z,1004.3
2018-04-29T06:17:41.542Z,1004.3
2018-04-29T06:18:43.977Z,1004.3
2018-04-29T06:19:46.418Z,1004.4
2018-04-29T06:20:48.868Z,1004.4
2018-04-29T06:21:51.605Z,1004.3
2018-04-29T06:22:54.338Z,1004.3
2018-04-29T06:23:56.769Z,1004.4
2018-04-29T06:24:59.209Z,1004.4
2018-04-29T06:26:02.000Z,1004.3
2018-04-29T06:27:06.188Z,1004.3
2018-04-29T06:28:08.630Z,1004.3
2018-04-29T06:29:11.084Z,1004.3
2018-04-29T06:30:13.524Z,1004.4
2018-04-29T06:31:15.959Z,1004.4
2018-04-29T06:32:18.413Z,1004.4
2018-04-29T06:33:21.237Z,1004.4
2018-04-29T06:34:23.684Z,1004.4
2018-04-29T06:35:26.130Z,1004.4
2018-04-29T06:36:28.571Z,1004.4
2018-04-29T06:37:31.009Z,1004.4
2018-04-29T06:38:33.465Z,1004.4
2018-04-29T06:39:36.283Z,1004.3
2018-04-29T06:40:38.723Z,1004.4
2018-04-29T06:41:41.171Z,1004.4
2018-04-29T06:42:43.603Z,1004.4
2018-04-29T06:43:46.345Z,1004.4
2018-04-29T06:44:48.785Z,1004.4
2018-04-29T06:45:51.617Z,1004.4
2018-04-29T06:46:54.808Z,1004.4
2018-04-29T06:47:57.563Z,1004.4
2018-04-29T06:49:00.298Z,1004.5
2018-04-29T06:50:02.721Z,1004.5
2018-04-29T06:51:05.453Z,1004.5
2018-04-29T06:52:07.889Z,1004.5
2018-04-29T06:53:10.345Z,1004.6
2018-04-29T06:54:13.071Z,1004.5
2018-04-29T06:55:15.511Z,1004.5
2018-04-29T06:56:18.526Z,1004.5
2018-04-29T06:57:21.271Z,1004.5
2018-04-29T06:58:23.715Z,1004.5
2018-04-29T06:59:26.444Z,1004.5
2018-04-29T07:00:28.886Z,1004.4
2018-04-29T07:01:31.338Z,1004.5
2018-04-29T07:02:33.770Z,1004.5
2018-04-29T07:03:36.212Z,1004.4
2018-04-29T07:04:38.669Z,1004.5
2018-04-29T07:05:41.487Z,1004.5
2018-04-29T07:06:44.231Z,1004.6
2018-04-29T07:07:46.989Z,1004.6
2018-04-29T07:08:50.028Z,1004.6
2018-04-29T07:09:52.764Z,1004.6
2018-04-29T07:10:55.204Z,1004.7
2018-04-29T07:11:57.634Z,1004.7
2018-04-29T07:13:00.089Z,1004.8
2018-04-29T07:14:02.823Z,1004.8
2018-04-29T07:15:05.263Z,1004.8
2018-04-29T07:16:08.299Z,1004.8
2018-04-29T07:17:10.740Z,1004.8
2018-04-29T07:18:13.200Z,1004.8
2018-04-29T07:19:15.634Z,1004.8
2018-04-29T07:20:18.078Z,1004.8
2018-04-29T07:21:20.527Z,1004.8
2018-04-29T07:22:22.960Z,1004.7
2018-04-29T07:23:25.793Z,1004.7
2018-04-29T07:24:28.624Z,1004.7
2018-04-29T07:25:31.076Z,1004.7
2018-04-29T07:26:33.515Z,1004.7
2018-04-29T07:27:36.357Z,1004.7
2018-04-29T07:28:38.834Z,1004.7
2018-04-29T07:29:41.676Z,1004.7
2018-04-29T07:30:44.122Z,1004.7
2018-04-29T07:31:46.568Z,1004.7
2018-04-29T07:32:49.319Z,1004.8
2018-04-29T07:33:51.761Z,1004.7
2018-04-29T07:34:54.209Z,1004.7
2018-04-29T07:35:56.667Z,1004.7
2018-04-29T07:36:59.108Z,1004.7
2018-04-29T07:38:01.869Z,1004.7
2018-04-29T07:39:04.726Z,1004.6
2018-04-29T07:40:07.184Z,1004.7
2018-04-29T07:41:10.070Z,1004.7
2018-04-29T07:42:12.513Z,1004.6
2018-04-29T07:43:14.961Z,1004.6
2018-04-29T07:44:17.413Z,1004.6
2018-04-29T07:45:19.865Z,1004.6
2018-04-29T07:46:22.320Z,1004.6
2018-04-29T07:47:24.784Z,1004.6
2018-04-29T07:48:27.242Z,1004.6
2018-04-29T07:49:29.682Z,1004.7
2018-04-29T07:50:32.143Z,1004.7
2018-04-29T07:51:34.867Z,1004.7
2018-04-29T07:52:37.466Z,1004.7
2018-04-29T07:53:40.660Z,1004.6
2018-04-29T07:54:43.110Z,1004.7
2018-04-29T07:55:45.561Z,1004.6
2018-04-29T07:56:48.017Z,1004.7
2018-04-29T07:57:50.748Z,1004.6
2018-04-29T07:58:53.188Z,1004.6
2018-04-29T07:59:55.630Z,1004.7
2018-04-29T08:00:58.081Z,1004.7
2018-04-29T08:02:00.815Z,1004.6
2018-04-29T08:03:03.563Z,1004.6
2018-04-29T08:04:05.997Z,1004.6
2018-04-29T08:05:08.833Z,1004.6
2018-04-29T08:06:11.952Z,1004.6
2018-04-29T08:07:14.408Z,1004.6
2018-04-29T08:08:16.859Z,1004.6
2018-04-29T08:09:19.302Z,1004.6
2018-04-29T08:10:21.740Z,1004.6
2018-04-29T08:11:24.904Z,1004.6
2018-04-29T08:12:27.627Z,1004.5
2018-04-29T08:13:30.090Z,1004.5
2018-04-29T08:14:32.530Z,1004.5
2018-04-29T08:15:35.365Z,1004.5
2018-04-29T08:16:37.719Z,1004.4
2018-04-29T08:17:40.834Z,1004.5
2018-04-29T08:18:43.283Z,1004.5
2018-04-29T08:19:45.741Z,1004.5
2018-04-29T08:20:48.177Z,1004.5
2018-04-29T08:21:50.933Z,1004.5
2018-04-29T08:22:53.391Z,1004.5
2018-04-29T08:23:55.836Z,1004.5
2018-04-29T08:24:58.574Z,1004.6
2018-04-29T08:26:01.024Z,1004.5
2018-04-29T08:27:03.474Z,1004.5
2018-04-29T08:28:05.916Z,1004.5
2018-04-29T08:29:08.357Z,1004.5
2018-04-29T08:30:11.205Z,1004.5
2018-04-29T08:31:13.940Z,1004.5
2018-04-29T08:32:16.388Z,1004.5
2018-04-29T08:33:18.838Z,1004.5
2018-04-29T08:34:21.289Z,1004.4
2018-04-29T08:35:24.039Z,1004.4
2018-04-29T08:36:26.493Z,1004.5
2018-04-29T08:37:28.933Z,1004.4
2018-04-29T08:38:31.385Z,1004.4
2018-04-29T08:39:33.839Z,1004.5
2018-04-29T08:40:36.296Z,1004.4
2018-04-29T08:41:38.804Z,1004.5
2018-04-29T08:42:41.472Z,1004.5
2018-04-29T08:43:44.211Z,1004.5
2018-04-29T08:44:46.669Z,1004.5
2018-04-29T08:45:49.119Z,1004.5
2018-04-29T08:46:51.558Z,1004.5
2018-04-29T08:47:54.293Z,1004.5
2018-04-29T08:48:56.752Z,1004.5
2018-04-29T08:49:59.197Z,1004.4
2018-04-29T08:51:01.646Z,1004.4
2018-04-29T08:52:04.093Z,1004.4
2018-04-29T08:53:06.536Z,1004.3
2018-04-29T08:54:09.002Z,1004.3
2018-04-29T08:55:11.439Z,1004.3
2018-04-29T08:56:14.185Z,1004.3
2018-04-29T08:57:16.929Z,1004.3
2018-04-29T08:58:19.381Z,1004.3
2018-04-29T08:59:22.216Z,1004.3
2018-04-29T09:00:24.670Z,1004.3
2018-04-29T09:01:27.139Z,1004.3
2018-04-29T09:02:29.593Z,1004.2
2018-04-29T09:03:32.046Z,1004.3
2018-04-29T09:04:35.242Z,1004.3
2018-04-29T09:05:37.693Z,1004.3
2018-04-29T09:06:40.555Z,1004.3
2018-04-29T09:07:43.003Z,1004.3
2018-04-29T09:08:45.825Z,1004.3
2018-04-29T09:09:48.657Z,1004.2
2018-04-29T09:10:51.496Z,1004.2
2018-04-29T09:11:54.342Z,1004.3
2018-04-29T09:12:56.858Z,1004.2
2018-04-29T09:13:59.356Z,1004.2
2018-04-29T09:15:01.936Z,1004.2
2018-04-29T09:16:05.127Z,1004.2
2018-04-29T09:17:07.608Z,1004.2
2018-04-29T09:18:10.630Z,1004.2
2018-04-29T09:19:13.383Z,1004.2
2018-04-29T09:20:15.842Z,1004.2
2018-04-29T09:21:18.293Z,1004.1
2018-04-29T09:22:21.477Z,1004.1
2018-04-29T09:23:23.936Z,1004.1
2018-04-29T09:24:28.199Z,1004.1
2018-04-29T09:25:41.637Z,1004.1
2018-04-29T09:26:44.387Z,1004.1
2018-04-29T09:27:46.992Z,1004.1
2018-04-29T09:28:50.134Z,1004.1
2018-04-29T09:29:52.979Z,1004.1
2018-04-29T09:30:55.429Z,1004.1
2018-04-29T09:32:04.216Z,1004.1
2018-04-29T09:33:06.671Z,1004.1
2018-04-29T09:34:09.147Z,1004.1
2018-04-29T09:35:11.736Z,1004.1
2018-04-29T09:36:14.250Z,1004.1
2018-04-29T09:37:16.887Z,1004.1
2018-04-29T09:38:19.555Z,1004.1
2018-04-29T09:39:22.017Z,1004
2018-04-29T09:40:24.483Z,1004
2018-04-29T09:41:27.246Z,1004
2018-04-29T09:42:30.270Z,1004.1
2018-04-29T09:43:33.152Z,1004.1
2018-04-29T09:44:36.380Z,1004.1
2018-04-29T09:45:43.288Z,1004.1
2018-04-29T09:46:49.290Z,1004.1
2018-04-29T09:47:56.164Z,1004.2
2018-04-29T09:49:04.581Z,1004.1
2018-04-29T09:50:10.721Z,1004.1
2018-04-29T09:53:21.453Z,1004.1
2018-04-29T09:54:27.063Z,1004
2018-04-29T09:56:23.796Z,1004.1
2018-04-29T09:57:41.879Z,1004
2018-04-29T09:58:57.333Z,1004
2018-04-29T10:00:51.123Z,1004
2018-04-29T10:01:53.591Z,1004
2018-04-29T10:02:56.110Z,1004.1
2018-04-29T10:03:58.924Z,1004.1
2018-04-29T10:05:01.683Z,1004
2018-04-29T10:06:04.209Z,1004
2018-04-29T10:07:07.058Z,1004
2018-04-29T10:08:09.973Z,1004
2018-04-29T10:09:13.839Z,1004
2018-04-29T10:10:16.333Z,1004
2018-04-29T10:11:20.002Z,1004
2018-04-29T10:12:23.681Z,1004
2018-04-29T10:13:26.199Z,1003.9
2018-04-29T10:14:28.973Z,1004
2018-04-29T10:15:31.451Z,1004
2018-04-29T10:16:35.010Z,1004
2018-04-29T10:17:37.528Z,1004
2018-04-29T10:18:40.054Z,1004
2018-04-29T10:19:42.525Z,1004
2018-04-29T10:20:45.004Z,1003.9
2018-04-29T10:21:47.476Z,1003.9
2018-04-29T10:22:50.327Z,1003.8
2018-04-29T10:23:53.231Z,1003.8
2018-04-29T10:24:55.709Z,1003.8
2018-04-29T10:25:58.204Z,1003.8
2018-04-29T10:27:00.683Z,1003.8
2018-04-29T10:28:03.154Z,1003.8
2018-04-29T10:29:05.978Z,1003.8
2018-04-29T10:30:11.792Z,1003.8
2018-04-29T10:31:16.420Z,1003.8
2018-04-29T10:32:22.802Z,1003.8
2018-04-29T10:33:29.212Z,1003.8
2018-04-29T10:34:34.452Z,1003.8
2018-04-29T10:35:37.805Z,1003.9
2018-04-29T10:36:43.942Z,1003.8
2018-04-29T10:37:50.366Z,1003.8
2018-04-29T10:38:55.253Z,1003.8
2018-04-29T10:39:59.851Z,1003.8
2018-04-29T10:41:04.390Z,1003.7
2018-04-29T10:42:08.609Z,1003.7
2018-04-29T10:43:12.987Z,1003.7
2018-04-29T10:44:17.753Z,1003.7
2018-04-29T10:45:22.363Z,1003.7
2018-04-29T10:46:26.966Z,1003.6
2018-04-29T10:47:31.616Z,1003.7
2018-04-29T10:48:35.986Z,1003.7
2018-04-29T10:49:41.146Z,1003.8
2018-04-29T10:50:47.167Z,1003.7
2018-04-29T10:51:50.570Z,1003.7
2018-04-29T10:52:55.424Z,1003.7
2018-04-29T10:54:00.343Z,1003.6
2018-04-29T10:55:06.097Z,1003.6
2018-04-29T10:56:09.503Z,1003.7
2018-04-29T10:57:13.593Z,1003.7
2018-04-29T10:58:17.380Z,1003.8
2018-04-29T10:59:21.266Z,1003.7
2018-04-29T11:00:26.988Z,1003.7
2018-04-29T11:01:32.118Z,1003.7
2018-04-29T11:02:38.867Z,1003.7
2018-04-29T11:03:42.476Z,1003.6
2018-04-29T11:04:46.923Z,1003.6
2018-04-29T11:05:54.517Z,1003.6
2018-04-29T11:07:02.987Z,1003.6
2018-04-29T11:08:11.435Z,1003.5
2018-04-29T11:09:16.238Z,1003.5
2018-04-29T11:10:21.908Z,1003.6
2018-04-29T11:11:28.793Z,1003.6
2018-04-29T11:12:34.970Z,1003.5
2018-04-29T11:13:41.757Z,1003.5
2018-04-29T11:14:46.464Z,1003.5
2018-04-29T11:15:48.940Z,1003.5
2018-04-29T11:16:51.413Z,1003.5
2018-04-29T11:17:53.878Z,1003.5
2018-04-29T11:18:56.334Z,1003.5
2018-04-29T11:19:58.799Z,1003.5
2018-04-29T11:21:01.562Z,1003.5
2018-04-29T11:22:04.467Z,1003.4
2018-04-29T11:23:06.863Z,1003.5
2018-04-29T11:24:09.344Z,1003.4
2018-04-29T11:25:12.169Z,1003.5
2018-04-29T11:26:14.626Z,1003.4
2018-04-29T11:27:17.086Z,1003.4
2018-04-29T11:28:19.549Z,1003.5
2018-04-29T11:29:22.299Z,1003.5
2018-04-29T11:30:24.767Z,1003.5
2018-04-29T11:31:27.226Z,1003.5
2018-04-29T11:32:29.700Z,1003.5
2018-04-29T11:33:32.160Z,1003.5
2018-04-29T11:34:34.663Z,1003.5
2018-04-29T11:35:37.152Z,1003.5
2018-04-29T11:36:39.684Z,1003.5
2018-04-29T11:37:42.513Z,1003.5
2018-04-29T11:38:45.098Z,1003.5
2018-04-29T11:39:47.823Z,1003.5
2018-04-29T11:40:50.766Z,1003.5
2018-04-29T11:41:53.679Z,1003.5
2018-04-29T11:42:56.354Z,1003.5
2018-04-29T11:43:59.031Z,1003.5
2018-04-29T11:45:01.736Z,1003.5
2018-04-29T11:46:04.501Z,1003.5
2018-04-29T11:47:07.489Z,1003.5
2018-04-29T11:48:10.847Z,1003.5
2018-04-29T11:49:15.245Z,1003.5
2018-04-29T11:50:19.588Z,1003.5
2018-04-29T11:51:23.557Z,1003.4
2018-04-29T11:52:27.304Z,1003.4
2018-04-29T11:53:31.749Z,1003.4
2018-04-29T11:54:35.467Z,1003.3
2018-04-29T11:55:38.607Z,1003.3
2018-04-29T11:56:44.513Z,1003.3
2018-04-29T11:57:47.776Z,1003.3
2018-04-29T11:58:50.798Z,1003.3
2018-04-29T11:59:55.918Z,1003.3
2018-04-29T12:00:59.806Z,1003.3
2018-04-29T12:02:02.871Z,1003.3
2018-04-29T12:03:07.537Z,1003.3
2018-04-29T12:04:13.122Z,1003.3
2018-04-29T12:05:18.644Z,1003.2
2018-04-29T12:06:23.877Z,1003.2
2018-04-29T12:07:28.863Z,1003.3
2018-04-29T12:08:34.118Z,1003.3
2018-04-29T12:09:37.749Z,1003.2
2018-04-29T12:10:43.986Z,1003.2
2018-04-29T12:11:48.374Z,1003.2
2018-04-29T12:12:52.829Z,1003.2
2018-04-29T12:13:59.908Z,1003.2
2018-04-29T12:15:04.194Z,1003.1
2018-04-29T12:16:10.112Z,1003.2
2018-04-29T12:17:15.596Z,1003.1
2018-04-29T12:18:22.470Z,1003.1
2018-04-29T12:19:30.392Z,1003.1
2018-04-29T12:20:37.978Z,1003
2018-04-29T12:21:44.952Z,1003
2018-04-29T12:22:51.513Z,1003
2018-04-29T12:23:56.193Z,1003
2018-04-29T12:25:03.082Z,1003
2018-04-29T12:26:06.230Z,1003
2018-04-29T12:27:08.691Z,1003
2018-04-29T12:28:11.155Z,1002.9
2018-04-29T12:29:13.615Z,1002.9
2018-04-29T12:30:16.095Z,1002.9
2018-04-29T12:31:18.563Z,1002.9
2018-04-29T12:32:21.521Z,1002.8
2018-04-29T12:33:24.301Z,1002.8
2018-04-29T12:34:26.749Z,1002.8
2018-04-29T12:35:29.219Z,1002.9
2018-04-29T12:36:31.682Z,1002.8
2018-04-29T12:37:34.148Z,1002.9
2018-04-29T12:38:36.615Z,1002.8
2018-04-29T12:39:39.083Z,1002.9
2018-04-29T12:40:41.537Z,1002.9
2018-04-29T12:41:44.007Z,1002.9
2018-04-29T12:42:47.159Z,1002.8
2018-04-29T12:43:50.015Z,1002.8
2018-04-29T12:44:52.867Z,1002.8
2018-04-29T12:45:55.333Z,1002.8
2018-04-29T12:46:57.788Z,1002.7
2018-04-29T12:48:00.548Z,1002.7
2018-04-29T12:49:03.027Z,1002.7
2018-04-29T12:50:05.474Z,1002.7
2018-04-29T12:51:07.940Z,1002.7
2018-04-29T12:52:10.403Z,1002.7
2018-04-29T12:53:12.865Z,1002.8
2018-04-29T12:54:15.322Z,1002.8
2018-04-29T12:55:17.782Z,1002.8
2018-04-29T12:56:20.242Z,1002.8
2018-04-29T12:57:23.002Z,1002.8
2018-04-29T12:58:25.758Z,1002.8
2018-04-29T12:59:28.497Z,1002.8
2018-04-29T13:00:30.960Z,1002.9
2018-04-29T13:01:33.418Z,1002.8
2018-04-29T13:02:35.876Z,1002.8
2018-04-29T13:03:38.328Z,1002.8
2018-04-29T13:04:41.197Z,1002.8
2018-04-29T13:05:44.187Z,1002.8
2018-04-29T13:06:46.503Z,1002.8
2018-04-29T13:07:49.251Z,1002.7
2018-04-29T13:08:51.711Z,1002.7
2018-04-29T13:09:54.172Z,1002.6
2018-04-29T13:10:56.954Z,1002.6
2018-04-29T13:11:59.799Z,1002.6